createdAt,value
2022-07-25T00:00:47.858Z,695.21951
2022-07-25T00:05:49.829Z,668.70588
2022-07-25T00:10:51.554Z,542.05825
2022-07-25T00:15:53.388Z,579.05155
2022-07-25T00:20:55.026Z,744
2022-07-25T00:25:56.597Z,498.95495
2022-07-25T00:30:58.274Z,509.13761
2022-07-25T00:35:59.988Z,489.13274
2022-07-25T00:41:01.615Z,457.33333
2022-07-25T00:46:03.278Z,410.66667
2022-07-25T00:51:04.952Z,400.2963
2022-07-25T00:56:06.607Z,461.64706
2022-07-25T01:01:08.299Z,436.8
2022-07-25T01:06:10.132Z,417.84615
2022-07-25T01:11:11.772Z,417.84615
2022-07-25T01:16:13.510Z,444.81301
2022-07-25T01:21:15.199Z,400.2963
2022-07-25T01:26:16.831Z,393.63504
2022-07-25T01:31:18.534Z,393.63504
2022-07-25T01:36:20.189Z,384
2022-07-25T01:41:22.723Z,365.91781
2022-07-25T01:46:24.527Z,466.0339
2022-07-25T01:51:26.387Z,509.13761
2022-07-25T01:56:28.644Z,547.92157
2022-07-25T02:01:33.874Z,466.0339
2022-07-25T02:06:35.504Z,410.66667
2022-07-25T02:11:37.095Z,384
2022-07-25T02:16:38.778Z,432.88889
2022-07-25T02:21:40.497Z,475.03448
2022-07-25T02:26:42.097Z,461.64706
2022-07-25T02:31:43.769Z,390.37681
2022-07-25T02:36:45.651Z,407.15789
2022-07-25T02:41:47.327Z,410.66667
2022-07-25T02:46:49.005Z,440.77419
2022-07-25T02:51:50.671Z,384
2022-07-25T02:56:52.332Z,380.87943
2022-07-25T03:01:54.203Z,417.84615
2022-07-25T03:06:56.937Z,410.66667
2022-07-25T03:11:58.580Z,371.77778
2022-07-25T03:17:00.471Z,396.94118
2022-07-25T03:22:02.457Z,414.22901
2022-07-25T03:27:04.093Z,407.15789
2022-07-25T03:32:05.855Z,396.94118
2022-07-25T03:37:07.577Z,410.66667
2022-07-25T03:42:09.220Z,432.88889
2022-07-25T03:47:10.902Z,432.88889
2022-07-25T03:52:22.709Z,414.22901
2022-07-25T03:57:24.379Z,400.2963
2022-07-25T04:02:26.051Z,403.70149
2022-07-25T04:07:27.733Z,403.70149
2022-07-25T04:12:29.339Z,387.16547
2022-07-25T04:17:30.927Z,410.66667
2022-07-25T04:22:32.525Z,475.03448
2022-07-25T04:27:34.126Z,425.25
2022-07-25T04:32:35.841Z,425.25
2022-07-25T04:37:37.429Z,421.51938
2022-07-25T04:42:39.018Z,403.70149
2022-07-25T04:47:40.654Z,407.15789
2022-07-25T04:52:42.253Z,436.8
2022-07-25T04:57:43.892Z,440.77419
2022-07-25T05:02:45.593Z,470.49573
2022-07-25T05:07:47.258Z,432.88889
2022-07-25T05:12:48.865Z,393.63504
2022-07-25T05:17:50.488Z,336.35669
2022-07-25T05:22:52.126Z,329
2022-07-25T05:27:53.828Z,417.84615
2022-07-25T05:32:55.460Z,403.70149
2022-07-25T05:37:57.197Z,374.76923
2022-07-25T05:43:02.968Z,371.77778
2022-07-25T05:48:05.414Z,410.66667
2022-07-25T05:53:07.043Z,410.66667
2022-07-25T05:58:08.652Z,396.94118
2022-07-25T06:03:10.317Z,403.70149
2022-07-25T06:08:11.984Z,440.77419
2022-07-25T06:13:13.602Z,421.51938
2022-07-25T06:18:15.926Z,387.16547
2022-07-25T06:23:17.545Z,403.70149
2022-07-25T06:28:19.178Z,414.22901
2022-07-25T06:33:20.821Z,440.77419
2022-07-25T06:38:22.419Z,489.13274
2022-07-25T06:43:24.010Z,461.64706
2022-07-25T06:48:25.858Z,444.81301
2022-07-25T06:53:27.503Z,436.8
2022-07-25T06:58:29.077Z,410.66667
2022-07-25T07:03:30.758Z,414.22901
2022-07-25T07:08:32.645Z,390.37681
2022-07-25T07:13:34.494Z,396.94118
2022-07-25T07:18:36.191Z,390.37681
2022-07-25T07:23:37.819Z,384
2022-07-25T07:28:41.696Z,380.87943
2022-07-25T07:33:43.321Z,377.80282
2022-07-25T07:38:44.941Z,368.82759
2022-07-25T07:43:46.567Z,374.76923
2022-07-25T07:48:48.239Z,374.76923
2022-07-25T07:53:49.926Z,380.87943
2022-07-25T07:58:51.526Z,387.16547
2022-07-25T08:03:53.122Z,365.91781
2022-07-25T08:08:54.710Z,363.04762
2022-07-25T08:13:56.327Z,365.91781
2022-07-25T08:18:58.042Z,368.82759
2022-07-25T08:23:59.678Z,368.82759
2022-07-25T08:29:18.185Z,374.76923
2022-07-25T08:34:21.306Z,371.77778
2022-07-25T08:39:22.895Z,377.80282
2022-07-25T08:44:24.514Z,374.76923
2022-07-25T08:49:26.167Z,368.82759
2022-07-25T08:54:27.798Z,374.76923
2022-07-25T08:59:29.443Z,371.77778
2022-07-25T09:04:31.051Z,371.77778
2022-07-25T09:09:32.664Z,363.04762
2022-07-25T09:14:34.236Z,368.82759
2022-07-25T09:19:35.841Z,368.82759
2022-07-25T09:24:37.459Z,365.91781
2022-07-25T09:29:39.031Z,374.76923
2022-07-25T09:34:40.665Z,374.76923
2022-07-25T09:39:46.125Z,371.77778
2022-07-25T09:44:48.529Z,374.76923
2022-07-25T09:49:50.172Z,377.80282
2022-07-25T09:54:51.855Z,380.87943
2022-07-25T09:59:53.465Z,380.87943
2022-07-25T10:04:55.183Z,384
2022-07-25T10:09:56.853Z,371.77778
2022-07-25T10:14:58.460Z,374.76923
2022-07-25T10:20:00.096Z,380.87943
2022-07-25T10:25:01.826Z,387.16547
2022-07-25T10:30:03.513Z,377.80282
2022-07-25T10:35:05.125Z,384
2022-07-25T10:40:06.735Z,374.76923
2022-07-25T10:45:08.363Z,374.76923
2022-07-25T10:50:29.708Z,371.77778
2022-07-25T10:55:42.032Z,377.80282
2022-07-25T11:00:43.661Z,380.87943
2022-07-25T11:05:45.257Z,377.80282
2022-07-25T11:10:47.052Z,393.63504
2022-07-25T11:15:48.642Z,384
2022-07-25T11:20:50.283Z,374.76923
2022-07-25T11:25:51.882Z,374.76923
2022-07-25T11:30:53.481Z,371.77778
2022-07-25T11:35:55.102Z,377.80282
2022-07-25T11:40:56.707Z,380.87943
2022-07-25T11:45:58.378Z,384
2022-07-25T11:51:00.069Z,393.63504
2022-07-25T11:56:14.414Z,393.63504
2022-07-25T12:01:27.420Z,387.16547
2022-07-25T12:06:29.032Z,393.63504
2022-07-25T12:11:30.679Z,393.63504
2022-07-25T12:16:32.348Z,396.94118
2022-07-25T12:21:34.243Z,396.94118
2022-07-25T12:26:35.875Z,407.15789
2022-07-25T12:31:37.516Z,403.70149
2022-07-25T12:36:39.081Z,396.94118
2022-07-25T12:41:40.695Z,390.37681
2022-07-25T12:46:47.375Z,396.94118
2022-07-25T12:51:54.714Z,393.63504
2022-07-25T12:56:59.661Z,403.70149
2022-07-25T13:02:01.369Z,403.70149
2022-07-25T13:07:03.061Z,414.22901
2022-07-25T13:12:04.706Z,393.63504
2022-07-25T13:17:06.377Z,390.37681
2022-07-25T13:22:08.025Z,387.16547
2022-07-25T13:27:09.715Z,384
2022-07-25T13:32:11.359Z,390.37681
2022-07-25T13:37:13.028Z,400.2963
2022-07-25T13:42:14.712Z,393.63504
2022-07-25T13:47:16.312Z,393.63504
2022-07-25T13:52:17.936Z,396.94118
2022-07-25T13:57:19.737Z,403.70149
2022-07-25T14:02:21.434Z,410.66667
2022-07-25T14:07:23.069Z,432.88889
2022-07-25T14:12:24.653Z,425.25
2022-07-25T14:17:30.167Z,432.88889
2022-07-25T14:22:32.236Z,440.77419
2022-07-25T14:27:33.811Z,421.51938
2022-07-25T14:32:35.437Z,429.03937
2022-07-25T14:37:37.102Z,425.25
2022-07-25T14:42:38.748Z,436.8
2022-07-25T14:47:40.451Z,457.33333
2022-07-25T14:52:42.128Z,466.0339
2022-07-25T14:57:43.773Z,457.33333
2022-07-25T15:02:45.452Z,489.13274
2022-07-25T15:07:47.026Z,475.03448
2022-07-25T15:12:54.345Z,504
2022-07-25T15:18:04.149Z,484.35088
2022-07-25T15:23:05.729Z,453.09091
2022-07-25T15:28:07.327Z,453.09091
2022-07-25T15:33:08.996Z,444.81301
2022-07-25T15:38:10.674Z,436.8
2022-07-25T15:43:12.270Z,444.81301
2022-07-25T15:48:13.885Z,457.33333
2022-07-25T15:53:15.638Z,509.13761
2022-07-25T15:58:17.237Z,448.91803
2022-07-25T16:03:19.012Z,429.03937
2022-07-25T16:08:20.632Z,432.88889
2022-07-25T16:13:22.334Z,440.77419
2022-07-25T16:18:23.937Z,453.09091
2022-07-25T16:23:25.550Z,466.0339
2022-07-25T16:28:27.356Z,436.8
2022-07-25T16:33:29.644Z,440.77419
2022-07-25T16:38:31.281Z,461.64706
2022-07-25T16:43:32.919Z,509.13761
2022-07-25T16:48:34.833Z,466.0339
2022-07-25T16:53:36.497Z,440.77419
2022-07-25T16:58:38.323Z,461.64706
2022-07-25T17:03:40.389Z,444.81301
2022-07-25T17:08:41.949Z,547.92157
2022-07-25T17:13:43.565Z,479.65217
2022-07-25T17:18:45.375Z,444.81301
2022-07-25T17:23:46.957Z,470.49573
2022-07-25T17:28:48.528Z,457.33333
2022-07-25T17:33:50.167Z,470.49573
2022-07-25T17:38:51.861Z,457.33333
2022-07-25T17:43:53.517Z,457.33333
2022-07-25T17:48:55.270Z,444.81301
2022-07-25T17:53:57.060Z,479.65217
2022-07-25T17:58:58.634Z,494
2022-07-25T18:04:00.432Z,461.64706
2022-07-25T18:09:02.110Z,470.49573
2022-07-25T18:14:04.419Z,494
2022-07-25T18:19:06.205Z,519.70093
2022-07-25T18:24:08.153Z,514.37037
2022-07-25T18:29:09.997Z,504
2022-07-25T18:34:11.634Z,509.13761
2022-07-25T18:39:13.216Z,484.35088
2022-07-25T18:44:14.814Z,484.35088
2022-07-25T18:49:16.851Z,448.91803
2022-07-25T18:54:18.496Z,509.13761
2022-07-25T18:59:20.290Z,466.0339
2022-07-25T19:04:21.912Z,498.95495
2022-07-25T19:09:23.563Z,475.03448
2022-07-25T19:14:25.212Z,484.35088
2022-07-25T19:19:26.950Z,484.35088
2022-07-25T19:24:28.619Z,470.49573
2022-07-25T19:29:30.225Z,475.03448
2022-07-25T19:34:31.845Z,470.49573
2022-07-25T19:39:33.469Z,470.49573
2022-07-25T19:44:35.129Z,484.35088
2022-07-25T19:49:36.721Z,479.65217
2022-07-25T19:54:38.479Z,489.13274
2022-07-25T19:59:40.074Z,479.65217
2022-07-25T20:04:41.812Z,453.09091
2022-07-25T20:09:43.425Z,453.09091
2022-07-25T20:14:45.024Z,453.09091
2022-07-25T20:19:46.824Z,448.91803
2022-07-25T20:24:48.748Z,475.03448
2022-07-25T20:29:50.566Z,414.22901
2022-07-25T20:34:52.149Z,494
2022-07-25T20:39:53.735Z,509.13761
2022-07-25T20:44:55.707Z,536.30769
2022-07-25T20:49:57.354Z,470.49573
2022-07-25T20:54:59.034Z,525.13208
2022-07-25T21:00:00.631Z,479.65217
2022-07-25T21:05:02.501Z,425.25
2022-07-25T21:10:04.123Z,453.09091
2022-07-25T21:15:05.811Z,436.8
2022-07-25T21:20:07.412Z,440.77419
2022-07-25T21:25:09.017Z,457.33333
2022-07-25T21:30:10.628Z,470.49573
2022-07-25T21:35:12.267Z,514.37037
2022-07-25T21:40:13.867Z,553.90099
2022-07-25T21:45:15.510Z,448.91803
2022-07-25T21:50:23.204Z,536.30769
2022-07-25T21:55:26.722Z,475.03448
2022-07-25T22:00:29.681Z,498.95495
2022-07-25T22:05:33.346Z,504
2022-07-25T22:10:34.962Z,498.95495
2022-07-25T22:15:36.810Z,525.13208
2022-07-25T22:20:38.402Z,475.03448
2022-07-25T22:25:40.018Z,514.37037
2022-07-25T22:30:41.590Z,553.90099
2022-07-25T22:35:43.281Z,572.57143
2022-07-25T22:40:45.586Z,606.36559
2022-07-25T22:45:47.299Z,606.36559
2022-07-25T22:50:49.118Z,636.13483
2022-07-25T22:55:50.745Z,660.27907
2022-07-25T23:00:52.429Z,494
2022-07-25T23:05:54.114Z,542.05825
2022-07-25T23:10:58.161Z,566.22222
2022-07-25T23:15:59.826Z,628.44444
2022-07-25T23:21:01.468Z,613.56522
2022-07-25T23:26:03.106Z,509.13761
2022-07-25T23:31:04.841Z,660.27907
2022-07-25T23:36:06.572Z,652.04598
2022-07-25T23:41:08.178Z,530.66667
2022-07-25T23:46:09.806Z,553.90099
2022-07-25T23:51:13.187Z,536.30769
2022-07-25T23:56:20.170Z,606.36559
